sensor_id;sensor_type;location;lat;lon;timestamp;temperature;humidity
26579;DHT22;14227;47.674;19.320;2023-08-12T00:00:52;10.60;63.00
26579;DHT22;14227;47.674;19.320;2023-08-12T00:03:17;10.50;63.20
26579;DHT22;14227;47.674;19.320;2023-08-12T00:05:45;10.50;63.80
26579;DHT22;14227;47.674;19.320;2023-08-12T00:08:11;10.50;62.90
26579;DHT22;14227;47.674;19.320;2023-08-12T00:10:37;10.50;63.50
26579;DHT22;14227;47.674;19.320;2023-08-12T00:13:03;10.50;63.80
26579;DHT22;14227;47.674;19.320;2023-08-12T00:15:29;10.50;64.10
26579;DHT22;14227;47.674;19.320;2023-08-12T00:17:54;10.50;65.10
26579;DHT22;14227;47.674;19.320;2023-08-12T00:20:20;10.50;64.30
26579;DHT22;14227;47.674;19.320;2023-08-12T00:22:46;10.50;64.10
26579;DHT22;14227;47.674;19.320;2023-08-12T00:25:11;10.50;65.20
26579;DHT22;14227;47.674;19.320;2023-08-12T00:27:37;10.50;64.80
26579;DHT22;14227;47.674;19.320;2023-08-12T00:30:04;10.50;66.20
26579;DHT22;14227;47.674;19.320;2023-08-12T00:32:30;10.50;66.20
26579;DHT22;14227;47.674;19.320;2023-08-12T00:34:56;10.50;65.60
26579;DHT22;14227;47.674;19.320;2023-08-12T00:37:22;10.50;65.20
26579;DHT22;14227;47.674;19.320;2023-08-12T00:39:48;10.40;65.80
26579;DHT22;14227;47.674;19.320;2023-08-12T00:42:14;10.40;66.20
26579;DHT22;14227;47.674;19.320;2023-08-12T00:44:39;10.40;66.20
26579;DHT22;14227;47.674;19.320;2023-08-12T00:47:05;10.30;66.10
26579;DHT22;14227;47.674;19.320;2023-08-12T00:49:32;10.30;66.10
26579;DHT22;14227;47.674;19.320;2023-08-12T00:51:58;10.30;66.10
26579;DHT22;14227;47.674;19.320;2023-08-12T00:54:26;10.30;65.70
26579;DHT22;14227;47.674;19.320;2023-08-12T00:56:53;10.30;65.80
26579;DHT22;14227;47.674;19.320;2023-08-12T00:59:19;10.20;66.00
26579;DHT22;14227;47.674;19.320;2023-08-12T01:01:46;10.20;66.50
26579;DHT22;14227;47.674;19.320;2023-08-12T01:04:12;10.20;67.10
26579;DHT22;14227;47.674;19.320;2023-08-12T01:06:38;10.20;66.00
26579;DHT22;14227;47.674;19.320;2023-08-12T01:09:05;10.20;65.00
26579;DHT22;14227;47.674;19.320;2023-08-12T01:14:33;10.20;66.00
26579;DHT22;14227;47.674;19.320;2023-08-12T01:17:03;10.20;67.20
26579;DHT22;14227;47.674;19.320;2023-08-12T01:19:33;10.10;67.40
26579;DHT22;14227;47.674;19.320;2023-08-12T01:22:03;10.10;67.60
26579;DHT22;14227;47.674;19.320;2023-08-12T01:24:42;10.10;68.00
26579;DHT22;14227;47.674;19.320;2023-08-12T01:27:10;10.10;68.70
26579;DHT22;14227;47.674;19.320;2023-08-12T01:29:48;10.20;68.80
26579;DHT22;14227;47.674;19.320;2023-08-12T01:32:32;10.20;66.90
26579;DHT22;14227;47.674;19.320;2023-08-12T01:35:07;10.10;66.10
26579;DHT22;14227;47.674;19.320;2023-08-12T01:37:35;10.10;66.00
26579;DHT22;14227;47.674;19.320;2023-08-12T01:40:03;10.10;66.20
26579;DHT22;14227;47.674;19.320;2023-08-12T01:42:32;10.10;65.90
26579;DHT22;14227;47.674;19.320;2023-08-12T01:44:58;10.00;65.60
26579;DHT22;14227;47.674;19.320;2023-08-12T01:47:25;10.00;64.80
26579;DHT22;14227;47.674;19.320;2023-08-12T01:49:50;10.00;65.80
26579;DHT22;14227;47.674;19.320;2023-08-12T01:52:16;9.90;66.00
26579;DHT22;14227;47.674;19.320;2023-08-12T01:54:42;9.90;65.70
26579;DHT22;14227;47.674;19.320;2023-08-12T01:57:07;9.80;66.10
26579;DHT22;14227;47.674;19.320;2023-08-12T01:59:38;9.80;66.60
26579;DHT22;14227;47.674;19.320;2023-08-12T02:02:04;9.80;66.60
26579;DHT22;14227;47.674;19.320;2023-08-12T02:04:30;9.80;66.60
26579;DHT22;14227;47.674;19.320;2023-08-12T02:06:56;9.80;66.60
26579;DHT22;14227;47.674;19.320;2023-08-12T02:09:22;9.70;66.50
26579;DHT22;14227;47.674;19.320;2023-08-12T02:11:48;9.80;66.60
26579;DHT22;14227;47.674;19.320;2023-08-12T02:14:14;9.70;66.50
26579;DHT22;14227;47.674;19.320;2023-08-12T02:16:40;9.60;66.40
26579;DHT22;14227;47.674;19.320;2023-08-12T02:19:06;9.60;67.70
26579;DHT22;14227;47.674;19.320;2023-08-12T02:21:32;9.60;67.60
26579;DHT22;14227;47.674;19.320;2023-08-12T02:23:57;9.60;67.10
26579;DHT22;14227;47.674;19.320;2023-08-12T02:26:23;9.60;66.40
26579;DHT22;14227;47.674;19.320;2023-08-12T02:28:49;9.60;65.80
26579;DHT22;14227;47.674;19.320;2023-08-12T02:31:18;9.50;66.00
26579;DHT22;14227;47.674;19.320;2023-08-12T02:33:43;9.50;66.30
26579;DHT22;14227;47.674;19.320;2023-08-12T02:36:09;9.50;65.60
26579;DHT22;14227;47.674;19.320;2023-08-12T02:38:35;9.50;65.80
26579;DHT22;14227;47.674;19.320;2023-08-12T02:41:01;9.50;65.40
26579;DHT22;14227;47.674;19.320;2023-08-12T02:43:26;9.40;64.80
26579;DHT22;14227;47.674;19.320;2023-08-12T02:45:52;9.30;64.80
26579;DHT22;14227;47.674;19.320;2023-08-12T02:48:18;9.30;66.10
26579;DHT22;14227;47.674;19.320;2023-08-12T02:50:44;9.30;66.20
26579;DHT22;14227;47.674;19.320;2023-08-12T02:53:10;9.30;67.00
26579;DHT22;14227;47.674;19.320;2023-08-12T02:55:35;9.30;66.90
26579;DHT22;14227;47.674;19.320;2023-08-12T02:58:03;9.30;67.00
26579;DHT22;14227;47.674;19.320;2023-08-12T03:00:29;9.30;66.20
26579;DHT22;14227;47.674;19.320;2023-08-12T03:02:55;9.30;66.20
26579;DHT22;14227;47.674;19.320;2023-08-12T03:05:21;9.30;66.20
26579;DHT22;14227;47.674;19.320;2023-08-12T03:07:47;9.20;66.10
26579;DHT22;14227;47.674;19.320;2023-08-12T03:10:13;9.20;66.10
26579;DHT22;14227;47.674;19.320;2023-08-12T03:12:38;9.20;66.40
26579;DHT22;14227;47.674;19.320;2023-08-12T03:15:06;9.20;66.10
26579;DHT22;14227;47.674;19.320;2023-08-12T03:17:32;9.20;66.10
26579;DHT22;14227;47.674;19.320;2023-08-12T03:19:58;9.20;65.30
26579;DHT22;14227;47.674;19.320;2023-08-12T03:22:30;9.10;65.00
26579;DHT22;14227;47.674;19.320;2023-08-12T03:24:56;9.20;65.40
26579;DHT22;14227;47.674;19.320;2023-08-12T03:27:21;9.20;66.10
26579;DHT22;14227;47.674;19.320;2023-08-12T03:29:47;9.20;66.10
26579;DHT22;14227;47.674;19.320;2023-08-12T03:32:13;9.20;66.10
26579;DHT22;14227;47.674;19.320;2023-08-12T03:34:39;9.20;66.10
26579;DHT22;14227;47.674;19.320;2023-08-12T03:37:04;9.10;66.00
26579;DHT22;14227;47.674;19.320;2023-08-12T03:39:30;9.10;66.00
26579;DHT22;14227;47.674;19.320;2023-08-12T03:41:56;9.10;66.00
26579;DHT22;14227;47.674;19.320;2023-08-12T03:44:22;9.10;66.90
26579;DHT22;14227;47.674;19.320;2023-08-12T03:46:48;9.10;66.90
26579;DHT22;14227;47.674;19.320;2023-08-12T03:49:13;9.10;67.50
26579;DHT22;14227;47.674;19.320;2023-08-12T03:51:39;9.10;66.90
26579;DHT22;14227;47.674;19.320;2023-08-12T03:54:05;9.10;66.90
26579;DHT22;14227;47.674;19.320;2023-08-12T03:56:31;9.10;67.20
26579;DHT22;14227;47.674;19.320;2023-08-12T03:58:56;9.10;67.30
26579;DHT22;14227;47.674;19.320;2023-08-12T04:01:22;9.10;67.10
26579;DHT22;14227;47.674;19.320;2023-08-12T04:03:48;9.10;67.70
26579;DHT22;14227;47.674;19.320;2023-08-12T04:06:14;9.20;67.90
26579;DHT22;14227;47.674;19.320;2023-08-12T04:08:39;9.20;67.70
26579;DHT22;14227;47.674;19.320;2023-08-12T04:11:05;9.20;68.10
26579;DHT22;14227;47.674;19.320;2023-08-12T04:13:31;9.30;69.00
26579;DHT22;14227;47.674;19.320;2023-08-12T04:15:57;9.30;69.00
26579;DHT22;14227;47.674;19.320;2023-08-12T04:18:22;9.40;69.50
26579;DHT22;14227;47.674;19.320;2023-08-12T04:20:49;9.40;69.50
26579;DHT22;14227;47.674;19.320;2023-08-12T04:23:16;9.50;69.50
26579;DHT22;14227;47.674;19.320;2023-08-12T04:25:47;9.50;69.60
26579;DHT22;14227;47.674;19.320;2023-08-12T04:28:14;9.60;69.90
26579;DHT22;14227;47.674;19.320;2023-08-12T04:30:46;9.70;70.50
26579;DHT22;14227;47.674;19.320;2023-08-12T04:33:13;9.80;70.70
26579;DHT22;14227;47.674;19.320;2023-08-12T04:35:40;9.90;70.30
26579;DHT22;14227;47.674;19.320;2023-08-12T04:38:06;10.00;70.00
26579;DHT22;14227;47.674;19.320;2023-08-12T04:40:32;10.10;71.30
26579;DHT22;14227;47.674;19.320;2023-08-12T04:43:01;10.20;72.20
26579;DHT22;14227;47.674;19.320;2023-08-12T04:45:27;10.30;72.20
26579;DHT22;14227;47.674;19.320;2023-08-12T04:47:54;10.40;72.20
26579;DHT22;14227;47.674;19.320;2023-08-12T04:50:20;10.50;73.10
26579;DHT22;14227;47.674;19.320;2023-08-12T04:52:46;10.70;73.70
26579;DHT22;14227;47.674;19.320;2023-08-12T04:55:12;10.80;74.30
26579;DHT22;14227;47.674;19.320;2023-08-12T04:57:38;11.00;74.70
26579;DHT22;14227;47.674;19.320;2023-08-12T05:00:05;11.20;74.70
26579;DHT22;14227;47.674;19.320;2023-08-12T05:02:34;11.40;76.10
26579;DHT22;14227;47.674;19.320;2023-08-12T05:04:59;11.70;76.60
26579;DHT22;14227;47.674;19.320;2023-08-12T05:07:25;12.00;77.00
26579;DHT22;14227;47.674;19.320;2023-08-12T05:09:51;12.40;77.20
26579;DHT22;14227;47.674;19.320;2023-08-12T05:12:16;12.70;76.90
26579;DHT22;14227;47.674;19.320;2023-08-12T05:14:42;13.10;76.00
26579;DHT22;14227;47.674;19.320;2023-08-12T05:17:08;13.40;75.40
26579;DHT22;14227;47.674;19.320;2023-08-12T05:19:33;13.60;74.70
26579;DHT22;14227;47.674;19.320;2023-08-12T05:21:59;13.90;74.70
26579;DHT22;14227;47.674;19.320;2023-08-12T05:24:25;14.10;75.00
26579;DHT22;14227;47.674;19.320;2023-08-12T05:26:51;14.30;75.50
26579;DHT22;14227;47.674;19.320;2023-08-12T05:29:16;14.50;76.00
26579;DHT22;14227;47.674;19.320;2023-08-12T05:31:42;14.70;76.00
26579;DHT22;14227;47.674;19.320;2023-08-12T05:34:08;14.80;76.00
26579;DHT22;14227;47.674;19.320;2023-08-12T05:36:33;15.00;75.60
26579;DHT22;14227;47.674;19.320;2023-08-12T05:38:59;15.20;75.50
26579;DHT22;14227;47.674;19.320;2023-08-12T05:41:25;15.30;75.80
26579;DHT22;14227;47.674;19.320;2023-08-12T05:43:51;15.60;76.30
26579;DHT22;14227;47.674;19.320;2023-08-12T05:46:16;15.90;76.40
26579;DHT22;14227;47.674;19.320;2023-08-12T05:48:42;16.30;77.50
26579;DHT22;14227;47.674;19.320;2023-08-12T05:51:08;16.80;80.30
26579;DHT22;14227;47.674;19.320;2023-08-12T05:53:34;17.50;79.80
26579;DHT22;14227;47.674;19.320;2023-08-12T05:56:00;18.30;78.00
26579;DHT22;14227;47.674;19.320;2023-08-12T05:58:25;19.00;73.90
26579;DHT22;14227;47.674;19.320;2023-08-12T06:00:51;19.50;70.50
26579;DHT22;14227;47.674;19.320;2023-08-12T06:03:17;20.00;68.80
26579;DHT22;14227;47.674;19.320;2023-08-12T06:05:45;20.60;68.70
26579;DHT22;14227;47.674;19.320;2023-08-12T06:08:11;21.10;66.20
26579;DHT22;14227;47.674;19.320;2023-08-12T06:10:37;21.60;61.60
26579;DHT22;14227;47.674;19.320;2023-08-12T06:13:03;22.10;59.40
26579;DHT22;14227;47.674;19.320;2023-08-12T06:15:29;22.50;56.40
26579;DHT22;14227;47.674;19.320;2023-08-12T06:17:55;22.80;52.40
26579;DHT22;14227;47.674;19.320;2023-08-12T06:20:20;23.20;52.10
26579;DHT22;14227;47.674;19.320;2023-08-12T06:22:46;23.60;49.00
26579;DHT22;14227;47.674;19.320;2023-08-12T06:25:12;24.00;46.70
26579;DHT22;14227;47.674;19.320;2023-08-12T06:27:38;24.30;43.80
26579;DHT22;14227;47.674;19.320;2023-08-12T06:30:04;24.80;41.40
26579;DHT22;14227;47.674;19.320;2023-08-12T06:32:36;25.00;37.60
26579;DHT22;14227;47.674;19.320;2023-08-12T06:35:02;25.40;37.00
26579;DHT22;14227;47.674;19.320;2023-08-12T06:37:28;25.70;35.70
26579;DHT22;14227;47.674;19.320;2023-08-12T06:39:54;26.10;33.30
26579;DHT22;14227;47.674;19.320;2023-08-12T06:42:20;26.40;31.70
26579;DHT22;14227;47.674;19.320;2023-08-12T06:44:55;26.70;29.90
26579;DHT22;14227;47.674;19.320;2023-08-12T06:47:21;27.00;28.00
26579;DHT22;14227;47.674;19.320;2023-08-12T06:49:47;27.30;26.60
26579;DHT22;14227;47.674;19.320;2023-08-12T06:52:12;27.60;26.70
26579;DHT22;14227;47.674;19.320;2023-08-12T06:54:42;27.90;25.80
26579;DHT22;14227;47.674;19.320;2023-08-12T06:57:08;28.10;24.00
26579;DHT22;14227;47.674;19.320;2023-08-12T06:59:34;28.30;23.50
26579;DHT22;14227;47.674;19.320;2023-08-12T07:01:59;28.50;23.10
26579;DHT22;14227;47.674;19.320;2023-08-12T07:04:25;28.70;22.10
26579;DHT22;14227;47.674;19.320;2023-08-12T07:06:51;28.90;22.20
26579;DHT22;14227;47.674;19.320;2023-08-12T07:09:17;29.30;21.50
26579;DHT22;14227;47.674;19.320;2023-08-12T07:11:43;29.50;20.70
26579;DHT22;14227;47.674;19.320;2023-08-12T07:14:09;29.80;20.20
26579;DHT22;14227;47.674;19.320;2023-08-12T07:16:34;30.20;19.90
26579;DHT22;14227;47.674;19.320;2023-08-12T07:19:00;30.40;19.90
26579;DHT22;14227;47.674;19.320;2023-08-12T07:21:26;30.60;19.50
26579;DHT22;14227;47.674;19.320;2023-08-12T07:23:51;30.90;19.50
26579;DHT22;14227;47.674;19.320;2023-08-12T07:26:17;31.20;18.20
26579;DHT22;14227;47.674;19.320;2023-08-12T07:28:43;31.40;17.90
26579;DHT22;14227;47.674;19.320;2023-08-12T07:31:08;31.50;16.90
26579;DHT22;14227;47.674;19.320;2023-08-12T07:33:34;31.70;17.30
26579;DHT22;14227;47.674;19.320;2023-08-12T07:36:01;32.00;16.70
26579;DHT22;14227;47.674;19.320;2023-08-12T07:38:27;32.20;16.70
26579;DHT22;14227;47.674;19.320;2023-08-12T07:40:52;32.40;16.10
26579;DHT22;14227;47.674;19.320;2023-08-12T07:43:18;32.60;16.20
26579;DHT22;14227;47.674;19.320;2023-08-12T07:45:44;32.80;15.00
26579;DHT22;14227;47.674;19.320;2023-08-12T07:48:09;32.90;14.90
26579;DHT22;14227;47.674;19.320;2023-08-12T07:50:35;33.20;15.30
26579;DHT22;14227;47.674;19.320;2023-08-12T07:53:01;33.30;14.90
26579;DHT22;14227;47.674;19.320;2023-08-12T07:55:27;33.40;15.00
26579;DHT22;14227;47.674;19.320;2023-08-12T07:57:53;33.70;15.60
26579;DHT22;14227;47.674;19.320;2023-08-12T08:00:21;33.90;14.50
26579;DHT22;14227;47.674;19.320;2023-08-12T08:02:46;34.10;14.10
26579;DHT22;14227;47.674;19.320;2023-08-12T08:05:12;34.40;13.50
26579;DHT22;14227;47.674;19.320;2023-08-12T08:07:38;34.60;13.20
26579;DHT22;14227;47.674;19.320;2023-08-12T08:10:04;34.80;13.30
26579;DHT22;14227;47.674;19.320;2023-08-12T08:12:30;35.10;12.30
26579;DHT22;14227;47.674;19.320;2023-08-12T08:14:57;35.30;12.50
26579;DHT22;14227;47.674;19.320;2023-08-12T08:17:23;35.60;12.10
26579;DHT22;14227;47.674;19.320;2023-08-12T08:19:49;35.80;11.50
26579;DHT22;14227;47.674;19.320;2023-08-12T08:22:14;35.90;10.70
26579;DHT22;14227;47.674;19.320;2023-08-12T08:24:40;36.10;11.40
26579;DHT22;14227;47.674;19.320;2023-08-12T08:27:06;36.20;10.80
26579;DHT22;14227;47.674;19.320;2023-08-12T08:29:32;36.20;10.00
26579;DHT22;14227;47.674;19.320;2023-08-12T08:31:58;36.30;10.40
26579;DHT22;14227;47.674;19.320;2023-08-12T08:34:24;36.40;10.00
26579;DHT22;14227;47.674;19.320;2023-08-12T08:36:50;36.60;9.90
26579;DHT22;14227;47.674;19.320;2023-08-12T08:39:16;36.90;9.50
26579;DHT22;14227;47.674;19.320;2023-08-12T08:41:42;37.10;9.60
26579;DHT22;14227;47.674;19.320;2023-08-12T08:44:09;37.40;9.10
26579;DHT22;14227;47.674;19.320;2023-08-12T08:46:35;37.50;9.80
26579;DHT22;14227;47.674;19.320;2023-08-12T08:49:01;37.60;8.50
26579;DHT22;14227;47.674;19.320;2023-08-12T08:51:30;37.80;7.60
26579;DHT22;14227;47.674;19.320;2023-08-12T08:53:58;38.00;7.90
26579;DHT22;14227;47.674;19.320;2023-08-12T08:56:24;38.10;7.80
26579;DHT22;14227;47.674;19.320;2023-08-12T08:58:50;38.20;7.20
26579;DHT22;14227;47.674;19.320;2023-08-12T09:01:18;38.50;7.10
26579;DHT22;14227;47.674;19.320;2023-08-12T09:03:45;38.70;7.20
26579;DHT22;14227;47.674;19.320;2023-08-12T09:06:12;38.80;6.80
26579;DHT22;14227;47.674;19.320;2023-08-12T09:08:41;38.90;6.40
26579;DHT22;14227;47.674;19.320;2023-08-12T09:11:10;39.20;5.70
26579;DHT22;14227;47.674;19.320;2023-08-12T09:13:37;39.30;5.70
26579;DHT22;14227;47.674;19.320;2023-08-12T09:16:03;39.50;5.10
26579;DHT22;14227;47.674;19.320;2023-08-12T09:18:30;39.70;4.40
26579;DHT22;14227;47.674;19.320;2023-08-12T09:20:55;40.00;5.00
26579;DHT22;14227;47.674;19.320;2023-08-12T09:23:21;40.10;5.30
26579;DHT22;14227;47.674;19.320;2023-08-12T09:25:47;40.30;4.00
26579;DHT22;14227;47.674;19.320;2023-08-12T09:28:14;40.40;3.80
26579;DHT22;14227;47.674;19.320;2023-08-12T09:30:40;40.50;4.30
26579;DHT22;14227;47.674;19.320;2023-08-12T09:33:07;40.70;3.20
26579;DHT22;14227;47.674;19.320;2023-08-12T09:35:38;41.00;3.70
26579;DHT22;14227;47.674;19.320;2023-08-12T09:38:05;41.30;3.10
26579;DHT22;14227;47.674;19.320;2023-08-12T09:40:32;41.50;3.20
26579;DHT22;14227;47.674;19.320;2023-08-12T09:42:58;41.60;3.10
26579;DHT22;14227;47.674;19.320;2023-08-12T09:45:25;41.80;2.50
26579;DHT22;14227;47.674;19.320;2023-08-12T09:47:51;42.00;2.80
26579;DHT22;14227;47.674;19.320;2023-08-12T09:50:17;42.40;2.20
26579;DHT22;14227;47.674;19.320;2023-08-12T09:52:46;42.60;2.30
26579;DHT22;14227;47.674;19.320;2023-08-12T09:55:16;42.80;1.90
26579;DHT22;14227;47.674;19.320;2023-08-12T09:57:43;43.10;1.60
26579;DHT22;14227;47.674;19.320;2023-08-12T10:00:11;43.20;2.00
26579;DHT22;14227;47.674;19.320;2023-08-12T10:02:45;43.30;1.20
26579;DHT22;14227;47.674;19.320;2023-08-12T10:08:15;43.50;1.10
26579;DHT22;14227;47.674;19.320;2023-08-12T10:10:42;43.70;1.00
26579;DHT22;14227;47.674;19.320;2023-08-12T10:13:10;43.90;1.00
26579;DHT22;14227;47.674;19.320;2023-08-12T10:15:36;44.00;1.00
26579;DHT22;14227;47.674;19.320;2023-08-12T10:18:04;44.20;1.00
26579;DHT22;14227;47.674;19.320;2023-08-12T10:20:31;44.30;1.00
26579;DHT22;14227;47.674;19.320;2023-08-12T10:22:59;44.50;1.00
26579;DHT22;14227;47.674;19.320;2023-08-12T10:25:31;44.80;1.00
26579;DHT22;14227;47.674;19.320;2023-08-12T10:27:58;45.00;1.00
26579;DHT22;14227;47.674;19.320;2023-08-12T10:30:23;45.00;1.00
26579;DHT22;14227;47.674;19.320;2023-08-12T10:32:49;45.10;1.00
26579;DHT22;14227;47.674;19.320;2023-08-12T10:35:15;45.20;1.00
26579;DHT22;14227;47.674;19.320;2023-08-12T10:37:41;45.40;1.00
26579;DHT22;14227;47.674;19.320;2023-08-12T10:40:27;45.80;1.00
26579;DHT22;14227;47.674;19.320;2023-08-12T10:42:53;46.00;1.00
26579;DHT22;14227;47.674;19.320;2023-08-12T10:45:21;46.00;1.00
26579;DHT22;14227;47.674;19.320;2023-08-12T10:51:03;46.50;1.00
26579;DHT22;14227;47.674;19.320;2023-08-12T10:53:34;46.50;1.00
26579;DHT22;14227;47.674;19.320;2023-08-12T10:56:04;46.50;1.00
26579;DHT22;14227;47.674;19.320;2023-08-12T10:58:46;46.50;1.00
26579;DHT22;14227;47.674;19.320;2023-08-12T11:01:18;46.60;1.00
26579;DHT22;14227;47.674;19.320;2023-08-12T11:03:44;46.70;1.00
26579;DHT22;14227;47.674;19.320;2023-08-12T11:09:38;47.40;1.00
26579;DHT22;14227;47.674;19.320;2023-08-12T11:12:04;47.60;1.00
26579;DHT22;14227;47.674;19.320;2023-08-12T11:14:30;47.60;1.00
26579;DHT22;14227;47.674;19.320;2023-08-12T11:16:56;47.60;1.00
26579;DHT22;14227;47.674;19.320;2023-08-12T11:19:21;47.80;1.00
26579;DHT22;14227;47.674;19.320;2023-08-12T11:21:47;47.90;1.00
26579;DHT22;14227;47.674;19.320;2023-08-12T11:24:13;47.90;1.00
26579;DHT22;14227;47.674;19.320;2023-08-12T11:26:41;47.90;1.00
26579;DHT22;14227;47.674;19.320;2023-08-12T11:29:11;48.00;1.00
26579;DHT22;14227;47.674;19.320;2023-08-12T11:31:37;47.90;1.00
26579;DHT22;14227;47.674;19.320;2023-08-12T11:34:04;47.70;1.00
26579;DHT22;14227;47.674;19.320;2023-08-12T11:36:30;47.60;1.00
26579;DHT22;14227;47.674;19.320;2023-08-12T11:38:56;47.30;1.00
26579;DHT22;14227;47.674;19.320;2023-08-12T11:41:23;47.00;1.00
26579;DHT22;14227;47.674;19.320;2023-08-12T11:43:48;46.80;1.00
26579;DHT22;14227;47.674;19.320;2023-08-12T11:46:18;46.70;1.00
26579;DHT22;14227;47.674;19.320;2023-08-12T11:48:44;46.70;1.00
26579;DHT22;14227;47.674;19.320;2023-08-12T11:51:10;46.80;1.00
26579;DHT22;14227;47.674;19.320;2023-08-12T11:53:35;47.00;1.00
26579;DHT22;14227;47.674;19.320;2023-08-12T11:56:01;47.00;1.00
26579;DHT22;14227;47.674;19.320;2023-08-12T11:58:36;47.00;1.00
26579;DHT22;14227;47.674;19.320;2023-08-12T12:01:01;47.00;1.00
26579;DHT22;14227;47.674;19.320;2023-08-12T12:03:28;46.90;1.00
26579;DHT22;14227;47.674;19.320;2023-08-12T12:05:56;47.00;1.00
26579;DHT22;14227;47.674;19.320;2023-08-12T12:08:21;47.10;1.00
26579;DHT22;14227;47.674;19.320;2023-08-12T12:10:47;47.40;1.00
26579;DHT22;14227;47.674;19.320;2023-08-12T12:13:13;47.70;1.00
26579;DHT22;14227;47.674;19.320;2023-08-12T12:15:43;47.80;1.00
26579;DHT22;14227;47.674;19.320;2023-08-12T12:18:12;47.80;1.00
26579;DHT22;14227;47.674;19.320;2023-08-12T12:20:58;47.70;1.00
26579;DHT22;14227;47.674;19.320;2023-08-12T12:23:31;47.70;1.00
26579;DHT22;14227;47.674;19.320;2023-08-12T12:26:00;47.60;1.00
26579;DHT22;14227;47.674;19.320;2023-08-12T12:28:27;47.60;1.00
26579;DHT22;14227;47.674;19.320;2023-08-12T12:30:54;47.50;1.00
26579;DHT22;14227;47.674;19.320;2023-08-12T12:33:20;47.10;1.00
26579;DHT22;14227;47.674;19.320;2023-08-12T12:35:46;46.50;1.00
26579;DHT22;14227;47.674;19.320;2023-08-12T12:38:11;46.30;1.00
26579;DHT22;14227;47.674;19.320;2023-08-12T12:40:37;46.20;1.00
26579;DHT22;14227;47.674;19.320;2023-08-12T12:43:04;45.90;1.00
26579;DHT22;14227;47.674;19.320;2023-08-12T12:45:30;45.70;1.00
26579;DHT22;14227;47.674;19.320;2023-08-12T12:47:55;45.20;1.00
26579;DHT22;14227;47.674;19.320;2023-08-12T12:50:21;44.90;1.00
26579;DHT22;14227;47.674;19.320;2023-08-12T12:52:47;44.60;1.00
26579;DHT22;14227;47.674;19.320;2023-08-12T12:55:13;44.10;1.00
26579;DHT22;14227;47.674;19.320;2023-08-12T12:57:38;43.90;1.00
26579;DHT22;14227;47.674;19.320;2023-08-12T13:00:05;43.50;1.00
26579;DHT22;14227;47.674;19.320;2023-08-12T13:02:31;43.00;1.00
26579;DHT22;14227;47.674;19.320;2023-08-12T13:04:57;42.60;2.00
26579;DHT22;14227;47.674;19.320;2023-08-12T13:07:22;42.40;1.90
26579;DHT22;14227;47.674;19.320;2023-08-12T13:09:48;42.50;1.40
26579;DHT22;14227;47.674;19.320;2023-08-12T13:12:14;42.80;1.00
26579;DHT22;14227;47.674;19.320;2023-08-12T13:14:39;42.90;1.00
26579;DHT22;14227;47.674;19.320;2023-08-12T13:17:05;42.90;1.00
26579;DHT22;14227;47.674;19.320;2023-08-12T13:19:31;42.80;1.00
26579;DHT22;14227;47.674;19.320;2023-08-12T13:22:36;42.80;1.00
26579;DHT22;14227;47.674;19.320;2023-08-12T13:25:02;43.00;1.00
26579;DHT22;14227;47.674;19.320;2023-08-12T13:27:28;43.00;1.10
26579;DHT22;14227;47.674;19.320;2023-08-12T13:29:53;42.90;1.00
26579;DHT22;14227;47.674;19.320;2023-08-12T13:32:20;42.80;1.00
26579;DHT22;14227;47.674;19.320;2023-08-12T13:34:45;42.90;1.40
26579;DHT22;14227;47.674;19.320;2023-08-12T13:37:13;42.90;1.00
26579;DHT22;14227;47.674;19.320;2023-08-12T13:39:39;42.70;1.00
26579;DHT22;14227;47.674;19.320;2023-08-12T13:42:05;42.50;1.00
26579;DHT22;14227;47.674;19.320;2023-08-12T13:44:30;42.50;1.00
26579;DHT22;14227;47.674;19.320;2023-08-12T13:46:56;42.50;1.50
26579;DHT22;14227;47.674;19.320;2023-08-12T13:49:22;42.50;1.00
26579;DHT22;14227;47.674;19.320;2023-08-12T13:51:48;42.40;1.10
26579;DHT22;14227;47.674;19.320;2023-08-12T13:54:13;42.70;1.40
26579;DHT22;14227;47.674;19.320;2023-08-12T13:56:43;43.10;1.00
26579;DHT22;14227;47.674;19.320;2023-08-12T13:59:09;43.50;1.00
26579;DHT22;14227;47.674;19.320;2023-08-12T14:01:35;43.70;1.00
26579;DHT22;14227;47.674;19.320;2023-08-12T14:04:01;43.50;1.00
26579;DHT22;14227;47.674;19.320;2023-08-12T14:06:27;43.10;1.00
26579;DHT22;14227;47.674;19.320;2023-08-12T14:08:52;42.50;1.00
26579;DHT22;14227;47.674;19.320;2023-08-12T14:11:18;42.10;2.00
26579;DHT22;14227;47.674;19.320;2023-08-12T14:13:46;41.60;1.80
26579;DHT22;14227;47.674;19.320;2023-08-12T14:16:11;41.80;1.80
26579;DHT22;14227;47.674;19.320;2023-08-12T14:18:37;42.00;2.00
26579;DHT22;14227;47.674;19.320;2023-08-12T14:21:06;42.20;1.00
26579;DHT22;14227;47.674;19.320;2023-08-12T14:23:32;42.50;1.00
26579;DHT22;14227;47.674;19.320;2023-08-12T14:25:57;42.70;1.00
26579;DHT22;14227;47.674;19.320;2023-08-12T14:28:26;42.90;1.00
26579;DHT22;14227;47.674;19.320;2023-08-12T14:30:51;43.00;1.00
26579;DHT22;14227;47.674;19.320;2023-08-12T14:33:18;43.40;1.00
26579;DHT22;14227;47.674;19.320;2023-08-12T14:35:44;43.70;1.00
26579;DHT22;14227;47.674;19.320;2023-08-12T14:38:10;43.80;1.00
26579;DHT22;14227;47.674;19.320;2023-08-12T14:40:39;44.20;1.00
26579;DHT22;14227;47.674;19.320;2023-08-12T14:43:04;44.40;1.00
26579;DHT22;14227;47.674;19.320;2023-08-12T14:45:30;44.50;1.00
26579;DHT22;14227;47.674;19.320;2023-08-12T14:47:56;44.50;1.00
26579;DHT22;14227;47.674;19.320;2023-08-12T14:50:22;44.40;1.00
26579;DHT22;14227;47.674;19.320;2023-08-12T14:52:47;44.30;1.00
26579;DHT22;14227;47.674;19.320;2023-08-12T14:55:13;44.30;1.00
26579;DHT22;14227;47.674;19.320;2023-08-12T14:57:39;44.20;1.00
26579;DHT22;14227;47.674;19.320;2023-08-12T15:00:05;44.00;1.00
26579;DHT22;14227;47.674;19.320;2023-08-12T15:02:34;43.90;1.00
26579;DHT22;14227;47.674;19.320;2023-08-12T15:05:00;43.80;1.00
26579;DHT22;14227;47.674;19.320;2023-08-12T15:07:26;43.70;1.00
26579;DHT22;14227;47.674;19.320;2023-08-12T15:09:52;43.80;1.00
26579;DHT22;14227;47.674;19.320;2023-08-12T15:12:26;43.90;1.00
26579;DHT22;14227;47.674;19.320;2023-08-12T15:18:10;43.80;1.00
26579;DHT22;14227;47.674;19.320;2023-08-12T15:20:36;43.80;1.00
26579;DHT22;14227;47.674;19.320;2023-08-12T15:23:01;43.90;1.00
26579;DHT22;14227;47.674;19.320;2023-08-12T15:25:27;44.00;1.00
26579;DHT22;14227;47.674;19.320;2023-08-12T15:27:53;44.10;1.00
26579;DHT22;14227;47.674;19.320;2023-08-12T15:30:19;44.30;1.00
26579;DHT22;14227;47.674;19.320;2023-08-12T15:32:47;44.30;1.00
26579;DHT22;14227;47.674;19.320;2023-08-12T15:35:16;44.40;1.00
26579;DHT22;14227;47.674;19.320;2023-08-12T15:37:42;44.20;1.00